createdAt,value
2023-03-31T00:04:46.559Z,12
2023-03-31T00:11:09.204Z,11.99
2023-03-31T00:17:29.223Z,11.95
2023-03-31T00:23:52.171Z,11.9
2023-03-31T00:30:12.155Z,11.86
2023-03-31T00:36:35.283Z,11.83
2023-03-31T00:42:55.191Z,11.82
2023-03-31T00:49:18.157Z,11.82
2023-03-31T00:55:38.191Z,11.84
2023-03-31T01:02:01.200Z,11.83
2023-03-31T01:08:21.260Z,11.82
2023-03-31T01:14:44.176Z,11.78
2023-03-31T01:21:04.173Z,11.73
2023-03-31T01:27:27.199Z,11.72
2023-03-31T01:33:47.282Z,11.73
2023-03-31T01:40:10.201Z,11.78
2023-03-31T01:46:30.221Z,11.84
2023-03-31T01:52:53.224Z,11.9
2023-03-31T01:59:13.206Z,11.99
2023-03-31T02:05:36.182Z,12.05
2023-03-31T02:11:56.233Z,12.1
2023-03-31T02:18:19.357Z,12.09
2023-03-31T02:24:39.157Z,12.02
2023-03-31T02:31:02.225Z,11.93
2023-03-31T02:37:22.237Z,11.86
2023-03-31T02:43:45.264Z,11.77
2023-03-31T02:50:05.228Z,11.61
2023-03-31T02:56:28.179Z,11.43
2023-03-31T03:02:48.220Z,11.36
2023-03-31T03:09:11.190Z,11.27
2023-03-31T03:15:31.204Z,11.16
2023-03-31T03:21:54.245Z,11.08
2023-03-31T03:28:14.218Z,10.99
2023-03-31T03:34:37.195Z,11
2023-03-31T03:40:57.159Z,11.05
2023-03-31T03:47:20.260Z,11.13
2023-03-31T03:53:40.184Z,11.18
2023-03-31T04:00:03.202Z,11.22
2023-03-31T04:06:23.224Z,11.23
2023-03-31T04:12:46.171Z,11.3
2023-03-31T04:28:53.048Z,11.47
2023-03-31T04:35:13.156Z,11.42
2023-03-31T04:41:36.190Z,11.31
2023-03-31T04:47:56.219Z,11.18
2023-03-31T04:54:19.174Z,11.06
2023-03-31T05:00:39.201Z,10.96
2023-03-31T05:07:02.216Z,10.98
2023-03-31T05:13:22.215Z,11.06
2023-03-31T05:19:45.184Z,11.12
2023-03-31T05:26:05.361Z,11.23
2023-03-31T05:32:28.293Z,11.33
2023-03-31T05:38:48.187Z,11.36
2023-03-31T05:45:11.257Z,11.39
2023-03-31T05:51:31.153Z,11.46
2023-03-31T05:57:54.207Z,11.54
2023-03-31T06:04:14.239Z,11.56
2023-03-31T06:10:37.217Z,11.52
2023-03-31T06:16:57.873Z,11.47
2023-03-31T06:23:20.213Z,11.4
2023-03-31T06:29:40.216Z,11.33
2023-03-31T06:36:03.252Z,11.29
2023-03-31T06:42:23.205Z,11.3
2023-03-31T06:48:46.230Z,11.31
2023-03-31T06:55:06.190Z,11.33
2023-03-31T07:01:29.269Z,11.4
2023-03-31T07:07:49.229Z,11.51
2023-03-31T07:14:12.260Z,11.64
2023-03-31T07:20:32.221Z,11.84
2023-03-31T07:26:55.183Z,12.12
2023-03-31T07:33:15.240Z,12.3
2023-03-31T07:39:38.301Z,12.44
2023-03-31T07:45:58.175Z,12.55
2023-03-31T07:52:21.290Z,12.67
2023-03-31T07:58:41.278Z,12.79
2023-03-31T08:05:04.200Z,12.88
2023-03-31T08:11:24.156Z,12.96
2023-03-31T08:17:47.344Z,13.11
2023-03-31T08:24:07.206Z,13.29
2023-03-31T08:30:30.178Z,13.48
2023-03-31T08:36:50.236Z,13.6
2023-03-31T08:43:13.201Z,13.62
2023-03-31T08:49:33.230Z,13.7
2023-03-31T08:55:56.302Z,13.88
2023-03-31T09:02:16.204Z,14.21
2023-03-31T09:08:39.223Z,14.41
2023-03-31T09:14:59.221Z,14.56
2023-03-31T09:21:22.208Z,14.63
2023-03-31T09:38:06.105Z,15.26
2023-03-31T09:44:29.164Z,15.26
2023-03-31T09:50:49.158Z,15.33
2023-03-31T09:57:12.232Z,15.34
2023-03-31T10:03:32.182Z,15.4
2023-03-31T10:09:55.215Z,15.5
2023-03-31T10:16:15.218Z,15.42
2023-03-31T10:22:38.158Z,15.23
2023-03-31T10:28:58.185Z,15.16
2023-03-31T10:35:21.223Z,15.06
2023-03-31T10:41:41.154Z,14.96
2023-03-31T10:48:04.241Z,14.79
2023-03-31T10:54:24.312Z,14.2
2023-03-31T11:00:47.390Z,12.99
2023-03-31T11:07:07.168Z,12.35
2023-03-31T11:13:30.487Z,12.27
2023-03-31T11:19:50.487Z,12.36
2023-03-31T11:26:13.142Z,12.5
2023-03-31T11:32:33.248Z,12.62
2023-03-31T11:38:56.170Z,12.93
2023-03-31T11:45:17.308Z,13.29
2023-03-31T11:51:40.210Z,13.5
2023-03-31T11:58:00.184Z,13.66
2023-03-31T12:04:23.205Z,13.71
2023-03-31T12:10:43.755Z,13.61
2023-03-31T12:17:07.417Z,13.56
2023-03-31T12:23:27.215Z,13.38
2023-03-31T12:29:50.222Z,13.29
2023-03-31T12:36:10.412Z,13.28
2023-03-31T12:42:33.176Z,13.36
2023-03-31T12:48:55.283Z,13.46
2023-03-31T12:55:16.222Z,13.61
2023-03-31T13:01:36.209Z,13.84
2023-03-31T13:07:59.206Z,13.98
2023-03-31T13:14:19.238Z,14
2023-03-31T13:20:42.213Z,14.04
2023-03-31T13:27:02.201Z,14.09
2023-03-31T13:33:27.321Z,13.99
2023-03-31T13:39:47.449Z,14.02
2023-03-31T13:46:10.545Z,14.14
2023-03-31T13:52:30.159Z,14.31
2023-03-31T13:58:53.302Z,14.5
2023-03-31T14:05:13.215Z,14.53
2023-03-31T14:11:36.174Z,14.57
2023-03-31T14:17:56.207Z,14.59
2023-03-31T14:24:19.224Z,14.61
2023-03-31T14:30:39.171Z,14.58
2023-03-31T14:37:02.250Z,14.56
2023-03-31T14:53:27.130Z,14.68
2023-03-31T14:59:47.157Z,14.66
2023-03-31T15:06:10.264Z,14.56
2023-03-31T15:12:30.222Z,14.5
2023-03-31T15:18:53.176Z,14.45
2023-03-31T15:25:13.169Z,14.43
2023-03-31T15:31:36.290Z,14.41
2023-03-31T15:37:56.217Z,14.42
2023-03-31T15:44:19.184Z,14.46
2023-03-31T15:50:39.189Z,14.55
2023-03-31T15:57:02.237Z,14.55
2023-03-31T16:03:24.021Z,14.53
2023-03-31T16:09:45.213Z,14.46
2023-03-31T16:16:05.206Z,14.38
2023-03-31T16:22:28.185Z,14.3
2023-03-31T16:28:48.218Z,14.26
2023-03-31T16:35:11.174Z,14.22
2023-03-31T16:41:31.227Z,14.15
2023-03-31T16:47:54.844Z,14.07
2023-03-31T16:54:14.222Z,14.04
2023-03-31T17:00:37.452Z,13.98
2023-03-31T17:06:57.176Z,13.93
2023-03-31T17:13:20.224Z,13.87
2023-03-31T17:19:40.165Z,13.8
2023-03-31T17:26:03.289Z,13.74
2023-03-31T17:32:23.416Z,13.69
2023-03-31T17:38:46.275Z,13.62
2023-03-31T17:45:06.221Z,13.56
2023-03-31T17:51:29.189Z,13.51
2023-03-31T17:57:49.227Z,13.48
2023-03-31T18:04:12.258Z,13.43
2023-03-31T18:10:32.431Z,13.39
2023-03-31T18:16:55.185Z,13.35
2023-03-31T18:23:15.266Z,13.31
2023-03-31T18:29:38.164Z,13.25
2023-03-31T18:35:58.491Z,13.22
2023-03-31T18:42:21.263Z,13.18
2023-03-31T18:48:41.183Z,13.14
2023-03-31T18:55:04.212Z,13.12
2023-03-31T19:01:24.300Z,13.07
2023-03-31T19:07:47.160Z,13.02
2023-03-31T19:14:07.253Z,12.96
2023-03-31T19:20:30.184Z,12.89
2023-03-31T19:26:50.250Z,12.81
2023-03-31T19:33:13.257Z,12.73
2023-03-31T19:39:33.217Z,12.66
2023-03-31T19:45:56.235Z,12.55
2023-03-31T20:01:28.703Z,12.38
2023-03-31T20:07:48.134Z,12.33
2023-03-31T20:14:11.171Z,12.27
2023-03-31T20:20:31.240Z,12.22
2023-03-31T20:26:54.165Z,12.18
2023-03-31T20:33:14.195Z,12.15
2023-03-31T20:39:37.176Z,12.13
2023-03-31T20:45:57.145Z,12.12
2023-03-31T20:52:20.195Z,12.1
2023-03-31T20:58:42.520Z,12.03
2023-03-31T21:05:03.212Z,11.93
2023-03-31T21:11:23.185Z,11.85
2023-03-31T21:17:46.203Z,11.84
2023-03-31T21:24:06.173Z,11.89
2023-03-31T21:30:29.147Z,11.91
2023-03-31T21:36:49.207Z,11.86
2023-03-31T21:43:12.158Z,11.77
2023-03-31T21:49:32.175Z,11.74
2023-03-31T21:55:55.249Z,11.75
2023-03-31T22:02:15.146Z,11.75
2023-03-31T22:08:38.179Z,11.73
2023-03-31T22:14:58.248Z,11.73
2023-03-31T22:21:21.194Z,11.73
2023-03-31T22:27:41.148Z,11.72
2023-03-31T22:34:04.222Z,11.72
2023-03-31T22:40:24.242Z,11.72
2023-03-31T22:46:47.196Z,11.7
2023-03-31T22:53:07.203Z,11.68
2023-03-31T22:59:30.250Z,11.68
2023-03-31T23:22:27.165Z,11.65
2023-03-31T23:28:47.175Z,11.63
2023-03-31T23:35:10.164Z,11.63
2023-03-31T23:41:30.244Z,11.61
2023-03-31T23:47:53.191Z,11.53
2023-03-31T23:54:13.163Z,11.52
